BRV weather

CLOSED Bremerhaven Airport
Bremerhaven, Bremen, Germany

Public forecast

Using degrees Celsius for public forecast. Weather courtesy of forecast.io.

METAR (pilot weather report)

Closest report is Nordholz Naval Airbase, 16.0 nm (29.5 km) N. Retrieved 2019/05/26 17:20 UTC (31 minutes ago):

ETMN 261720Z 25013KT 9999 FEW005 BKN015 15/14 Q1006 RERA WHT

TAF (pilot weather forecast)

Forecast is more than 12 hours old.

Closest forecast is Nordholz Naval Airbase, 16.0 nm (29.5 km) N. Retrieved 2019/03/14 15:20 UTC (2 months ago):

TAF ETMN 141411Z 1415/1515 24010G30KT 8000 -RA BKN020 TEMPO 1415/1416 24010G30KT 8000 -RA BKN010 BKN020 BECMG 1416/1418 28020G35KT 8000 NSW FEW020 BKN030